CheckWX is a tool to help pilots better visualize weather data.  It is not intended as a substitute for an official pre-flight weather briefing.

16:43:08 UTC

EGBJ METAR
Gloucestershire Airport
Staverton, United Kingdom
Current

23 mins ago

EGBJ 251620Z 16002KT 3000 BR OVC004 07/06 Q1014
Observed
Jan-25 @ 16:20 UTC
Wind
  • 160° at 2 KTS
Visibility
3,000 meters
Flight Rules
LIFR
Conditions
Mist
Cloud Levels
  • Overcast at 400' AGL
Temperature
C / 45°F
Dewpoint
C / 43°F
Humidity
93%
Altimeter
29.94" Hg
Pressure
1013.92 hPa
Previous

53 mins ago

EGBJ 251550Z 16003KT 3000 BR OVC005 07/06 Q1015
Observed
Jan-25 @ 15:50 UTC
Wind
  • 160° at 3 KTS
Visibility
3,000 meters
Flight Rules
IFR
Conditions
Mist
Cloud Levels
  • Overcast at 500' AGL
Temperature
C / 45°F
Dewpoint
C / 43°F
Humidity
93%
Altimeter
29.97" Hg
Pressure
1014.92 hPa
Previous

1 hour ago

EGBJ 251520Z 16005KT 5000 -DZ OVC007 07/06 Q1015
Observed
Jan-25 @ 15:20 UTC
Wind
  • 160° at 5 KTS
Visibility
5,000 meters
Flight Rules
IFR
Conditions
Light Drizzle
Cloud Levels
  • Overcast at 700' AGL
Temperature
C / 45°F
Dewpoint
C / 43°F
Humidity
93%
Altimeter
29.97" Hg
Pressure
1014.92 hPa